sensor_id;sensor_type;location;lat;lon;timestamp;temperature;humidity
20891;DHT22;10605;52.968;8.844;2023-04-24T00:00:08;11.60;99.90
20891;DHT22;10605;52.968;8.844;2023-04-24T00:02:41;11.60;99.90
20891;DHT22;10605;52.968;8.844;2023-04-24T00:05:07;11.60;99.90
20891;DHT22;10605;52.968;8.844;2023-04-24T00:07:34;11.70;99.90
20891;DHT22;10605;52.968;8.844;2023-04-24T00:09:59;11.70;99.90
20891;DHT22;10605;52.968;8.844;2023-04-24T00:12:26;11.70;99.90
20891;DHT22;10605;52.968;8.844;2023-04-24T00:14:52;11.70;99.90
20891;DHT22;10605;52.968;8.844;2023-04-24T00:17:18;11.60;99.90
20891;DHT22;10605;52.968;8.844;2023-04-24T00:19:47;11.50;99.90
20891;DHT22;10605;52.968;8.844;2023-04-24T00:22:13;11.50;99.90
20891;DHT22;10605;52.968;8.844;2023-04-24T00:24:40;11.50;99.90
20891;DHT22;10605;52.968;8.844;2023-04-24T00:27:05;11.50;99.90
20891;DHT22;10605;52.968;8.844;2023-04-24T00:29:31;11.60;99.90
20891;DHT22;10605;52.968;8.844;2023-04-24T00:31:57;11.60;99.90
20891;DHT22;10605;52.968;8.844;2023-04-24T00:34:23;11.70;99.90
20891;DHT22;10605;52.968;8.844;2023-04-24T00:36:48;11.80;99.90
20891;DHT22;10605;52.968;8.844;2023-04-24T00:39:20;11.80;99.90
20891;DHT22;10605;52.968;8.844;2023-04-24T00:41:46;11.90;99.90
20891;DHT22;10605;52.968;8.844;2023-04-24T00:44:13;11.90;99.90
20891;DHT22;10605;52.968;8.844;2023-04-24T00:46:39;11.90;99.90
20891;DHT22;10605;52.968;8.844;2023-04-24T00:49:05;11.90;99.90
20891;DHT22;10605;52.968;8.844;2023-04-24T00:51:31;11.80;99.90
20891;DHT22;10605;52.968;8.844;2023-04-24T00:53:58;11.70;99.90
20891;DHT22;10605;52.968;8.844;2023-04-24T00:56:24;11.60;99.90
20891;DHT22;10605;52.968;8.844;2023-04-24T00:58:50;11.50;99.90
20891;DHT22;10605;52.968;8.844;2023-04-24T01:01:15;11.40;99.90
20891;DHT22;10605;52.968;8.844;2023-04-24T01:03:42;11.20;99.90
20891;DHT22;10605;52.968;8.844;2023-04-24T01:06:09;11.20;99.90
20891;DHT22;10605;52.968;8.844;2023-04-24T01:08:36;11.20;99.90
20891;DHT22;10605;52.968;8.844;2023-04-24T01:11:03;11.20;99.90
20891;DHT22;10605;52.968;8.844;2023-04-24T01:13:29;11.20;99.90
20891;DHT22;10605;52.968;8.844;2023-04-24T01:15:56;11.20;99.90
20891;DHT22;10605;52.968;8.844;2023-04-24T01:18:22;11.20;99.90
20891;DHT22;10605;52.968;8.844;2023-04-24T01:20:51;11.30;99.90
20891;DHT22;10605;52.968;8.844;2023-04-24T01:23:18;11.40;99.90
20891;DHT22;10605;52.968;8.844;2023-04-24T01:25:44;11.40;99.90
20891;DHT22;10605;52.968;8.844;2023-04-24T01:28:10;11.40;99.90
20891;DHT22;10605;52.968;8.844;2023-04-24T01:30:35;11.40;99.90
20891;DHT22;10605;52.968;8.844;2023-04-24T01:33:01;11.50;99.90
20891;DHT22;10605;52.968;8.844;2023-04-24T01:35:28;11.50;99.90
20891;DHT22;10605;52.968;8.844;2023-04-24T01:37:53;11.50;99.90
20891;DHT22;10605;52.968;8.844;2023-04-24T01:40:19;11.50;99.90
20891;DHT22;10605;52.968;8.844;2023-04-24T01:42:45;11.50;99.90
20891;DHT22;10605;52.968;8.844;2023-04-24T01:45:11;11.50;99.90
20891;DHT22;10605;52.968;8.844;2023-04-24T01:47:38;11.50;99.90
20891;DHT22;10605;52.968;8.844;2023-04-24T01:50:05;11.50;99.90
20891;DHT22;10605;52.968;8.844;2023-04-24T01:52:31;11.40;99.90
20891;DHT22;10605;52.968;8.844;2023-04-24T01:55:02;11.40;99.90
20891;DHT22;10605;52.968;8.844;2023-04-24T01:57:30;11.30;99.90
20891;DHT22;10605;52.968;8.844;2023-04-24T01:59:56;11.20;99.90
20891;DHT22;10605;52.968;8.844;2023-04-24T02:02:22;11.20;99.90
20891;DHT22;10605;52.968;8.844;2023-04-24T02:04:50;11.30;99.90
20891;DHT22;10605;52.968;8.844;2023-04-24T02:07:15;11.20;99.90
20891;DHT22;10605;52.968;8.844;2023-04-24T02:09:41;11.30;99.90
20891;DHT22;10605;52.968;8.844;2023-04-24T02:12:07;11.40;99.90
20891;DHT22;10605;52.968;8.844;2023-04-24T02:14:32;11.50;99.90
20891;DHT22;10605;52.968;8.844;2023-04-24T02:16:58;11.40;99.90
20891;DHT22;10605;52.968;8.844;2023-04-24T02:19:24;11.40;99.90
20891;DHT22;10605;52.968;8.844;2023-04-24T02:21:49;11.40;99.90
20891;DHT22;10605;52.968;8.844;2023-04-24T02:24:15;11.40;99.90
20891;DHT22;10605;52.968;8.844;2023-04-24T02:26:41;11.50;99.90
20891;DHT22;10605;52.968;8.844;2023-04-24T02:29:07;11.50;99.90
20891;DHT22;10605;52.968;8.844;2023-04-24T02:31:33;11.50;99.90
20891;DHT22;10605;52.968;8.844;2023-04-24T02:33:59;11.40;99.90
20891;DHT22;10605;52.968;8.844;2023-04-24T02:36:25;11.40;99.90
20891;DHT22;10605;52.968;8.844;2023-04-24T02:38:51;11.50;99.90
20891;DHT22;10605;52.968;8.844;2023-04-24T02:41:16;11.50;99.90
20891;DHT22;10605;52.968;8.844;2023-04-24T02:43:42;11.50;99.90
20891;DHT22;10605;52.968;8.844;2023-04-24T02:46:07;11.50;99.90
20891;DHT22;10605;52.968;8.844;2023-04-24T02:48:33;11.50;99.90
20891;DHT22;10605;52.968;8.844;2023-04-24T02:50:59;11.50;99.90
20891;DHT22;10605;52.968;8.844;2023-04-24T02:53:25;11.50;99.90
20891;DHT22;10605;52.968;8.844;2023-04-24T02:55:50;11.40;99.90
20891;DHT22;10605;52.968;8.844;2023-04-24T02:58:16;11.50;99.90
20891;DHT22;10605;52.968;8.844;2023-04-24T03:00:42;11.50;99.90
20891;DHT22;10605;52.968;8.844;2023-04-24T03:03:08;11.40;99.90
20891;DHT22;10605;52.968;8.844;2023-04-24T03:05:34;11.40;99.90
20891;DHT22;10605;52.968;8.844;2023-04-24T03:08:00;11.40;99.90
20891;DHT22;10605;52.968;8.844;2023-04-24T03:10:26;11.40;99.90
20891;DHT22;10605;52.968;8.844;2023-04-24T03:12:51;11.40;99.90
20891;DHT22;10605;52.968;8.844;2023-04-24T03:15:17;11.40;99.90
20891;DHT22;10605;52.968;8.844;2023-04-24T03:17:43;11.40;99.90
20891;DHT22;10605;52.968;8.844;2023-04-24T03:20:09;11.30;99.90
20891;DHT22;10605;52.968;8.844;2023-04-24T03:22:35;11.40;99.90
20891;DHT22;10605;52.968;8.844;2023-04-24T03:25:01;11.30;99.90
20891;DHT22;10605;52.968;8.844;2023-04-24T03:27:26;11.30;99.90
20891;DHT22;10605;52.968;8.844;2023-04-24T03:29:52;11.30;99.90
20891;DHT22;10605;52.968;8.844;2023-04-24T03:32:21;11.30;99.90
20891;DHT22;10605;52.968;8.844;2023-04-24T03:34:48;11.30;99.90
20891;DHT22;10605;52.968;8.844;2023-04-24T03:37:14;11.30;99.90
20891;DHT22;10605;52.968;8.844;2023-04-24T03:39:40;11.30;99.90
20891;DHT22;10605;52.968;8.844;2023-04-24T03:42:05;11.20;99.90
20891;DHT22;10605;52.968;8.844;2023-04-24T03:44:31;11.20;99.90
20891;DHT22;10605;52.968;8.844;2023-04-24T03:46:58;11.20;99.90
20891;DHT22;10605;52.968;8.844;2023-04-24T03:49:23;11.20;99.90
20891;DHT22;10605;52.968;8.844;2023-04-24T03:51:50;11.20;99.90
20891;DHT22;10605;52.968;8.844;2023-04-24T03:54:16;11.20;99.90
20891;DHT22;10605;52.968;8.844;2023-04-24T03:56:41;11.20;99.90
20891;DHT22;10605;52.968;8.844;2023-04-24T03:59:07;11.20;99.90
20891;DHT22;10605;52.968;8.844;2023-04-24T04:01:33;11.20;99.90
20891;DHT22;10605;52.968;8.844;2023-04-24T04:04:02;11.20;99.90
20891;DHT22;10605;52.968;8.844;2023-04-24T04:06:27;11.30;99.90
20891;DHT22;10605;52.968;8.844;2023-04-24T04:08:54;11.30;99.90
20891;DHT22;10605;52.968;8.844;2023-04-24T04:11:19;11.30;99.90
20891;DHT22;10605;52.968;8.844;2023-04-24T04:13:45;11.20;99.90
20891;DHT22;10605;52.968;8.844;2023-04-24T04:16:13;11.20;99.90
20891;DHT22;10605;52.968;8.844;2023-04-24T04:18:39;11.20;99.90
20891;DHT22;10605;52.968;8.844;2023-04-24T04:21:04;11.20;99.90
20891;DHT22;10605;52.968;8.844;2023-04-24T04:23:30;11.20;99.90
20891;DHT22;10605;52.968;8.844;2023-04-24T04:25:57;11.30;99.90
20891;DHT22;10605;52.968;8.844;2023-04-24T04:28:23;11.30;99.90
20891;DHT22;10605;52.968;8.844;2023-04-24T04:30:50;11.30;99.90
20891;DHT22;10605;52.968;8.844;2023-04-24T04:33:20;11.30;99.90
20891;DHT22;10605;52.968;8.844;2023-04-24T04:35:46;11.50;99.90
20891;DHT22;10605;52.968;8.844;2023-04-24T04:38:14;11.60;99.90
20891;DHT22;10605;52.968;8.844;2023-04-24T04:40:40;11.50;99.90
20891;DHT22;10605;52.968;8.844;2023-04-24T04:43:06;11.50;99.90
20891;DHT22;10605;52.968;8.844;2023-04-24T04:45:32;11.50;99.90
20891;DHT22;10605;52.968;8.844;2023-04-24T04:47:58;11.40;99.90
20891;DHT22;10605;52.968;8.844;2023-04-24T04:50:26;11.50;99.90
20891;DHT22;10605;52.968;8.844;2023-04-24T04:52:52;11.50;99.90
20891;DHT22;10605;52.968;8.844;2023-04-24T04:55:18;11.50;99.90
20891;DHT22;10605;52.968;8.844;2023-04-24T04:57:45;11.50;99.90
20891;DHT22;10605;52.968;8.844;2023-04-24T05:00:11;11.50;99.90
20891;DHT22;10605;52.968;8.844;2023-04-24T05:02:38;11.50;99.90
20891;DHT22;10605;52.968;8.844;2023-04-24T05:05:05;11.50;99.90
20891;DHT22;10605;52.968;8.844;2023-04-24T05:07:31;11.50;99.90
20891;DHT22;10605;52.968;8.844;2023-04-24T05:09:56;11.50;99.90
20891;DHT22;10605;52.968;8.844;2023-04-24T05:12:22;11.60;99.90
20891;DHT22;10605;52.968;8.844;2023-04-24T05:14:48;11.60;99.90
20891;DHT22;10605;52.968;8.844;2023-04-24T05:17:13;11.60;99.90
20891;DHT22;10605;52.968;8.844;2023-04-24T05:19:40;11.60;99.90
20891;DHT22;10605;52.968;8.844;2023-04-24T05:22:06;11.60;99.90
20891;DHT22;10605;52.968;8.844;2023-04-24T05:24:35;11.60;99.90
20891;DHT22;10605;52.968;8.844;2023-04-24T05:27:02;11.80;99.90
20891;DHT22;10605;52.968;8.844;2023-04-24T05:29:28;11.80;99.90
20891;DHT22;10605;52.968;8.844;2023-04-24T05:31:56;12.00;99.90
20891;DHT22;10605;52.968;8.844;2023-04-24T05:34:22;11.90;99.90
20891;DHT22;10605;52.968;8.844;2023-04-24T05:36:48;12.60;99.90
20891;DHT22;10605;52.968;8.844;2023-04-24T05:39:14;13.90;99.90
20891;DHT22;10605;52.968;8.844;2023-04-24T05:41:40;14.70;99.90
20891;DHT22;10605;52.968;8.844;2023-04-24T05:44:06;15.00;99.90
20891;DHT22;10605;52.968;8.844;2023-04-24T05:46:31;15.20;99.90
20891;DHT22;10605;52.968;8.844;2023-04-24T05:48:57;15.80;99.90
20891;DHT22;10605;52.968;8.844;2023-04-24T05:51:23;16.00;99.90
20891;DHT22;10605;52.968;8.844;2023-04-24T05:53:49;16.10;99.90
20891;DHT22;10605;52.968;8.844;2023-04-24T05:56:15;16.00;99.90
20891;DHT22;10605;52.968;8.844;2023-04-24T05:58:41;16.60;99.90
20891;DHT22;10605;52.968;8.844;2023-04-24T06:01:07;16.60;99.90
20891;DHT22;10605;52.968;8.844;2023-04-24T06:03:33;16.00;99.90
20891;DHT22;10605;52.968;8.844;2023-04-24T06:05:58;16.80;99.90
20891;DHT22;10605;52.968;8.844;2023-04-24T06:08:29;16.90;99.90
20891;DHT22;10605;52.968;8.844;2023-04-24T06:10:57;15.40;99.90
20891;DHT22;10605;52.968;8.844;2023-04-24T06:13:26;14.40;99.90
20891;DHT22;10605;52.968;8.844;2023-04-24T06:19:29;13.20;99.90
20891;DHT22;10605;52.968;8.844;2023-04-24T06:22:17;12.90;99.90
20891;DHT22;10605;52.968;8.844;2023-04-24T06:24:45;12.50;99.90
20891;DHT22;10605;52.968;8.844;2023-04-24T06:27:12;12.40;99.90
20891;DHT22;10605;52.968;8.844;2023-04-24T06:29:38;12.30;99.90
20891;DHT22;10605;52.968;8.844;2023-04-24T06:32:04;12.30;99.90
20891;DHT22;10605;52.968;8.844;2023-04-24T06:34:30;12.60;99.90
20891;DHT22;10605;52.968;8.844;2023-04-24T06:36:56;12.90;99.90
20891;DHT22;10605;52.968;8.844;2023-04-24T06:39:22;13.00;99.90
20891;DHT22;10605;52.968;8.844;2023-04-24T06:41:53;12.70;99.90
20891;DHT22;10605;52.968;8.844;2023-04-24T06:44:19;12.70;99.90
20891;DHT22;10605;52.968;8.844;2023-04-24T06:46:44;13.10;99.90
20891;DHT22;10605;52.968;8.844;2023-04-24T06:49:10;12.90;99.90
20891;DHT22;10605;52.968;8.844;2023-04-24T06:51:36;12.70;99.90
20891;DHT22;10605;52.968;8.844;2023-04-24T06:54:02;12.70;99.90
20891;DHT22;10605;52.968;8.844;2023-04-24T06:56:28;12.70;99.90
20891;DHT22;10605;52.968;8.844;2023-04-24T06:58:54;12.60;99.90
20891;DHT22;10605;52.968;8.844;2023-04-24T07:01:20;12.60;99.90
20891;DHT22;10605;52.968;8.844;2023-04-24T07:03:45;13.00;99.90
20891;DHT22;10605;52.968;8.844;2023-04-24T07:06:11;13.00;99.90
20891;DHT22;10605;52.968;8.844;2023-04-24T07:08:38;13.40;99.90
20891;DHT22;10605;52.968;8.844;2023-04-24T07:14:25;13.70;99.90
20891;DHT22;10605;52.968;8.844;2023-04-24T07:16:51;14.00;99.90
20891;DHT22;10605;52.968;8.844;2023-04-24T07:22:53;14.00;99.90
20891;DHT22;10605;52.968;8.844;2023-04-24T07:25:20;14.70;99.90
20891;DHT22;10605;52.968;8.844;2023-04-24T07:27:46;16.80;99.90
20891;DHT22;10605;52.968;8.844;2023-04-24T07:30:12;17.10;99.90
20891;DHT22;10605;52.968;8.844;2023-04-24T07:32:38;17.30;99.90
20891;DHT22;10605;52.968;8.844;2023-04-24T07:35:06;16.40;99.90
20891;DHT22;10605;52.968;8.844;2023-04-24T07:37:32;15.50;99.90
20891;DHT22;10605;52.968;8.844;2023-04-24T07:39:58;15.00;99.90
20891;DHT22;10605;52.968;8.844;2023-04-24T07:42:24;15.20;99.90
20891;DHT22;10605;52.968;8.844;2023-04-24T07:44:49;15.30;99.90
20891;DHT22;10605;52.968;8.844;2023-04-24T07:47:16;15.40;99.90
20891;DHT22;10605;52.968;8.844;2023-04-24T07:49:42;15.10;99.90
20891;DHT22;10605;52.968;8.844;2023-04-24T07:52:08;14.60;99.90
20891;DHT22;10605;52.968;8.844;2023-04-24T07:54:34;14.40;99.90
20891;DHT22;10605;52.968;8.844;2023-04-24T07:57:02;14.30;99.90
20891;DHT22;10605;52.968;8.844;2023-04-24T07:59:28;13.70;99.90
20891;DHT22;10605;52.968;8.844;2023-04-24T08:01:54;13.10;99.90
20891;DHT22;10605;52.968;8.844;2023-04-24T08:04:19;13.30;99.90
20891;DHT22;10605;52.968;8.844;2023-04-24T08:06:47;13.30;99.90
20891;DHT22;10605;52.968;8.844;2023-04-24T08:09:16;13.30;99.90
20891;DHT22;10605;52.968;8.844;2023-04-24T08:11:42;13.60;99.90
20891;DHT22;10605;52.968;8.844;2023-04-24T08:14:08;13.50;99.90
20891;DHT22;10605;52.968;8.844;2023-04-24T08:16:34;13.80;99.90
20891;DHT22;10605;52.968;8.844;2023-04-24T08:21:46;13.50;99.90
20891;DHT22;10605;52.968;8.844;2023-04-24T08:24:12;13.20;99.90
20891;DHT22;10605;52.968;8.844;2023-04-24T08:26:41;13.30;99.90
20891;DHT22;10605;52.968;8.844;2023-04-24T08:29:06;13.20;99.90
20891;DHT22;10605;52.968;8.844;2023-04-24T08:31:32;13.40;99.90
20891;DHT22;10605;52.968;8.844;2023-04-24T08:33:58;13.70;99.90
20891;DHT22;10605;52.968;8.844;2023-04-24T08:36:25;13.70;99.90
20891;DHT22;10605;52.968;8.844;2023-04-24T08:38:51;13.60;99.90
20891;DHT22;10605;52.968;8.844;2023-04-24T08:41:18;13.50;99.90
20891;DHT22;10605;52.968;8.844;2023-04-24T08:43:48;13.50;99.90
20891;DHT22;10605;52.968;8.844;2023-04-24T08:46:20;14.80;99.90
20891;DHT22;10605;52.968;8.844;2023-04-24T08:48:48;14.90;99.90
20891;DHT22;10605;52.968;8.844;2023-04-24T08:51:15;15.90;99.90
20891;DHT22;10605;52.968;8.844;2023-04-24T08:53:42;15.30;99.90
20891;DHT22;10605;52.968;8.844;2023-04-24T08:56:09;15.10;99.90
20891;DHT22;10605;52.968;8.844;2023-04-24T08:58:37;15.90;99.90
20891;DHT22;10605;52.968;8.844;2023-04-24T09:01:06;16.40;99.90
20891;DHT22;10605;52.968;8.844;2023-04-24T09:03:39;15.80;99.90
20891;DHT22;10605;52.968;8.844;2023-04-24T09:06:36;15.00;99.90
20891;DHT22;10605;52.968;8.844;2023-04-24T09:09:52;14.30;99.90
20891;DHT22;10605;52.968;8.844;2023-04-24T09:12:39;14.20;99.90
20891;DHT22;10605;52.968;8.844;2023-04-24T09:15:19;13.90;99.90
20891;DHT22;10605;52.968;8.844;2023-04-24T09:17:46;13.60;99.90
20891;DHT22;10605;52.968;8.844;2023-04-24T09:20:12;13.30;99.90
20891;DHT22;10605;52.968;8.844;2023-04-24T09:22:37;13.20;99.90
20891;DHT22;10605;52.968;8.844;2023-04-24T09:25:07;13.10;99.90
20891;DHT22;10605;52.968;8.844;2023-04-24T09:27:34;13.20;99.90
20891;DHT22;10605;52.968;8.844;2023-04-24T09:30:01;13.50;99.90
20891;DHT22;10605;52.968;8.844;2023-04-24T09:32:29;13.80;99.90
20891;DHT22;10605;52.968;8.844;2023-04-24T09:35:12;14.00;99.90
20891;DHT22;10605;52.968;8.844;2023-04-24T09:37:45;13.90;99.90
20891;DHT22;10605;52.968;8.844;2023-04-24T09:40:17;14.10;99.90
20891;DHT22;10605;52.968;8.844;2023-04-24T09:42:53;14.50;99.90
20891;DHT22;10605;52.968;8.844;2023-04-24T09:45:20;14.70;99.90
20891;DHT22;10605;52.968;8.844;2023-04-24T09:47:52;15.20;99.90
20891;DHT22;10605;52.968;8.844;2023-04-24T09:50:19;15.20;99.90
20891;DHT22;10605;52.968;8.844;2023-04-24T09:52:57;14.90;99.90
20891;DHT22;10605;52.968;8.844;2023-04-24T09:55:23;14.40;99.90
20891;DHT22;10605;52.968;8.844;2023-04-24T09:57:59;14.50;99.90
20891;DHT22;10605;52.968;8.844;2023-04-24T10:00:32;15.20;99.90
20891;DHT22;10605;52.968;8.844;2023-04-24T10:02:59;17.30;99.90
20891;DHT22;10605;52.968;8.844;2023-04-24T10:05:28;20.40;99.90
20891;DHT22;10605;52.968;8.844;2023-04-24T10:08:08;19.20;99.90
20891;DHT22;10605;52.968;8.844;2023-04-24T10:10:39;18.00;99.90
20891;DHT22;10605;52.968;8.844;2023-04-24T10:13:05;17.30;99.90
20891;DHT22;10605;52.968;8.844;2023-04-24T10:15:32;16.10;99.90
20891;DHT22;10605;52.968;8.844;2023-04-24T10:17:58;15.10;99.90
20891;DHT22;10605;52.968;8.844;2023-04-24T10:20:26;14.50;99.90
20891;DHT22;10605;52.968;8.844;2023-04-24T10:22:55;13.90;99.90
20891;DHT22;10605;52.968;8.844;2023-04-24T10:25:26;13.50;99.90
20891;DHT22;10605;52.968;8.844;2023-04-24T10:27:54;13.40;99.90
20891;DHT22;10605;52.968;8.844;2023-04-24T10:30:25;13.30;99.90
20891;DHT22;10605;52.968;8.844;2023-04-24T10:32:57;13.30;99.90
20891;DHT22;10605;52.968;8.844;2023-04-24T10:35:23;13.60;99.90
20891;DHT22;10605;52.968;8.844;2023-04-24T10:38:11;13.50;99.90
20891;DHT22;10605;52.968;8.844;2023-04-24T10:41:07;14.10;99.90
20891;DHT22;10605;52.968;8.844;2023-04-24T10:43:34;15.30;99.90
20891;DHT22;10605;52.968;8.844;2023-04-24T10:46:04;15.40;99.90
20891;DHT22;10605;52.968;8.844;2023-04-24T10:48:34;16.20;99.90
20891;DHT22;10605;52.968;8.844;2023-04-24T10:51:00;16.10;99.90
20891;DHT22;10605;52.968;8.844;2023-04-24T10:53:31;15.60;99.90
20891;DHT22;10605;52.968;8.844;2023-04-24T10:56:05;15.20;99.90
20891;DHT22;10605;52.968;8.844;2023-04-24T10:58:41;15.50;99.90
20891;DHT22;10605;52.968;8.844;2023-04-24T11:01:26;16.10;99.90
20891;DHT22;10605;52.968;8.844;2023-04-24T11:03:57;16.60;99.90
20891;DHT22;10605;52.968;8.844;2023-04-24T11:06:33;16.50;99.90
20891;DHT22;10605;52.968;8.844;2023-04-24T11:09:10;17.20;99.90
20891;DHT22;10605;52.968;8.844;2023-04-24T11:11:44;17.40;99.90
20891;DHT22;10605;52.968;8.844;2023-04-24T11:14:10;17.40;99.90
20891;DHT22;10605;52.968;8.844;2023-04-24T11:16:43;17.50;99.90
20891;DHT22;10605;52.968;8.844;2023-04-24T11:22:01;17.80;99.90
20891;DHT22;10605;52.968;8.844;2023-04-24T11:24:31;17.90;99.90
20891;DHT22;10605;52.968;8.844;2023-04-24T11:27:16;18.90;99.90
20891;DHT22;10605;52.968;8.844;2023-04-24T11:29:59;18.30;99.90
20891;DHT22;10605;52.968;8.844;2023-04-24T11:34:59;16.90;99.90
20891;DHT22;10605;52.968;8.844;2023-04-24T11:37:33;16.30;99.90
20891;DHT22;10605;52.968;8.844;2023-04-24T11:39:59;16.00;99.90
20891;DHT22;10605;52.968;8.844;2023-04-24T11:42:25;15.50;99.90
20891;DHT22;10605;52.968;8.844;2023-04-24T11:44:55;14.70;99.90
20891;DHT22;10605;52.968;8.844;2023-04-24T11:47:33;14.10;99.90
20891;DHT22;10605;52.968;8.844;2023-04-24T11:49:59;13.90;99.90
20891;DHT22;10605;52.968;8.844;2023-04-24T11:52:29;14.20;99.90
20891;DHT22;10605;52.968;8.844;2023-04-24T11:54:57;14.40;99.90
20891;DHT22;10605;52.968;8.844;2023-04-24T11:57:25;14.00;99.90
20891;DHT22;10605;52.968;8.844;2023-04-24T11:59:54;13.80;99.90
20891;DHT22;10605;52.968;8.844;2023-04-24T12:02:23;14.10;99.90
20891;DHT22;10605;52.968;8.844;2023-04-24T12:04:49;14.10;99.90
20891;DHT22;10605;52.968;8.844;2023-04-24T12:07:15;14.60;99.90
20891;DHT22;10605;52.968;8.844;2023-04-24T12:09:58;14.30;99.90
20891;DHT22;10605;52.968;8.844;2023-04-24T12:12:28;14.00;99.90
20891;DHT22;10605;52.968;8.844;2023-04-24T12:17:31;13.80;99.90
20891;DHT22;10605;52.968;8.844;2023-04-24T12:20:02;13.50;99.90
20891;DHT22;10605;52.968;8.844;2023-04-24T12:25:16;13.10;99.90
20891;DHT22;10605;52.968;8.844;2023-04-24T12:27:42;13.00;99.90
20891;DHT22;10605;52.968;8.844;2023-04-24T12:30:13;12.80;99.90
20891;DHT22;10605;52.968;8.844;2023-04-24T12:32:47;12.60;99.90
20891;DHT22;10605;52.968;8.844;2023-04-24T12:35:13;12.40;99.90
20891;DHT22;10605;52.968;8.844;2023-04-24T12:37:42;12.30;99.90
20891;DHT22;10605;52.968;8.844;2023-04-24T12:40:14;12.70;99.90
20891;DHT22;10605;52.968;8.844;2023-04-24T12:42:50;12.80;99.90
20891;DHT22;10605;52.968;8.844;2023-04-24T12:45:21;12.80;99.90
20891;DHT22;10605;52.968;8.844;2023-04-24T12:47:49;12.80;99.90
20891;DHT22;10605;52.968;8.844;2023-04-24T12:50:15;13.30;99.90
20891;DHT22;10605;52.968;8.844;2023-04-24T12:52:44;13.30;99.90
20891;DHT22;10605;52.968;8.844;2023-04-24T12:55:10;13.20;99.90
20891;DHT22;10605;52.968;8.844;2023-04-24T12:57:38;12.90;99.90
20891;DHT22;10605;52.968;8.844;2023-04-24T13:00:10;12.60;99.90
20891;DHT22;10605;52.968;8.844;2023-04-24T13:02:36;12.40;99.90
20891;DHT22;10605;52.968;8.844;2023-04-24T13:05:02;12.30;99.90
20891;DHT22;10605;52.968;8.844;2023-04-24T13:07:30;12.00;99.90
20891;DHT22;10605;52.968;8.844;2023-04-24T13:09:56;11.70;99.90
20891;DHT22;10605;52.968;8.844;2023-04-24T13:12:23;11.40;99.90
20891;DHT22;10605;52.968;8.844;2023-04-24T13:14:52;11.20;99.90
20891;DHT22;10605;52.968;8.844;2023-04-24T13:17:18;11.00;99.90
20891;DHT22;10605;52.968;8.844;2023-04-24T13:19:44;10.80;99.90
20891;DHT22;10605;52.968;8.844;2023-04-24T13:22:12;10.70;99.90
20891;DHT22;10605;52.968;8.844;2023-04-24T13:24:38;10.70;99.90
20891;DHT22;10605;52.968;8.844;2023-04-24T13:27:09;10.90;99.90
20891;DHT22;10605;52.968;8.844;2023-04-24T13:29:37;10.90;99.90
20891;DHT22;10605;52.968;8.844;2023-04-24T13:32:03;10.70;99.90
20891;DHT22;10605;52.968;8.844;2023-04-24T13:34:31;10.70;99.90
20891;DHT22;10605;52.968;8.844;2023-04-24T13:37:02;10.50;99.90
20891;DHT22;10605;52.968;8.844;2023-04-24T13:39:33;10.50;99.90
20891;DHT22;10605;52.968;8.844;2023-04-24T13:42:07;10.40;99.90
20891;DHT22;10605;52.968;8.844;2023-04-24T13:44:33;10.40;99.90
20891;DHT22;10605;52.968;8.844;2023-04-24T13:46:59;10.40;99.90
20891;DHT22;10605;52.968;8.844;2023-04-24T13:49:26;10.30;99.90
20891;DHT22;10605;52.968;8.844;2023-04-24T13:51:52;10.30;99.90
20891;DHT22;10605;52.968;8.844;2023-04-24T13:54:19;10.30;99.90
20891;DHT22;10605;52.968;8.844;2023-04-24T13:56:44;10.20;99.90
20891;DHT22;10605;52.968;8.844;2023-04-24T13:59:14;10.30;99.90
20891;DHT22;10605;52.968;8.844;2023-04-24T14:01:40;10.10;99.90
20891;DHT22;10605;52.968;8.844;2023-04-24T14:04:06;9.90;99.90
20891;DHT22;10605;52.968;8.844;2023-04-24T14:06:32;10.10;99.90
20891;DHT22;10605;52.968;8.844;2023-04-24T14:08:57;10.00;99.90
20891;DHT22;10605;52.968;8.844;2023-04-24T14:11:23;10.00;99.90
20891;DHT22;10605;52.968;8.844;2023-04-24T14:13:49;9.90;99.90
20891;DHT22;10605;52.968;8.844;2023-04-24T14:16:15;9.90;99.90
20891;DHT22;10605;52.968;8.844;2023-04-24T14:18:41;10.00;99.90
20891;DHT22;10605;52.968;8.844;2023-04-24T14:21:06;9.90;99.90
20891;DHT22;10605;52.968;8.844;2023-04-24T14:23:32;9.90;99.90
20891;DHT22;10605;52.968;8.844;2023-04-24T14:25:58;10.00;99.90
20891;DHT22;10605;52.968;8.844;2023-04-24T14:28:24;10.00;99.90
20891;DHT22;10605;52.968;8.844;2023-04-24T14:30:51;10.00;99.90
20891;DHT22;10605;52.968;8.844;2023-04-24T14:33:17;10.00;99.90
20891;DHT22;10605;52.968;8.844;2023-04-24T14:35:43;10.10;99.90
20891;DHT22;10605;52.968;8.844;2023-04-24T14:38:09;10.10;99.90
20891;DHT22;10605;52.968;8.844;2023-04-24T14:40:35;10.10;99.90
20891;DHT22;10605;52.968;8.844;2023-04-24T14:43:01;10.10;99.90
20891;DHT22;10605;52.968;8.844;2023-04-24T14:45:27;10.10;99.90
20891;DHT22;10605;52.968;8.844;2023-04-24T14:47:53;10.00;99.90
20891;DHT22;10605;52.968;8.844;2023-04-24T14:50:19;10.10;99.90
20891;DHT22;10605;52.968;8.844;2023-04-24T14:52:45;10.10;99.90
20891;DHT22;10605;52.968;8.844;2023-04-24T14:55:12;10.20;99.90
20891;DHT22;10605;52.968;8.844;2023-04-24T14:57:38;10.20;99.90
20891;DHT22;10605;52.968;8.844;2023-04-24T15:00:07;10.30;99.90
20891;DHT22;10605;52.968;8.844;2023-04-24T15:02:35;10.20;99.90
20891;DHT22;10605;52.968;8.844;2023-04-24T15:05:05;10.40;99.90
20891;DHT22;10605;52.968;8.844;2023-04-24T15:07:31;10.40;99.90
20891;DHT22;10605;52.968;8.844;2023-04-24T15:09:57;10.50;99.90
20891;DHT22;10605;52.968;8.844;2023-04-24T15:12:22;10.50;99.90
20891;DHT22;10605;52.968;8.844;2023-04-24T15:14:48;10.50;99.90
20891;DHT22;10605;52.968;8.844;2023-04-24T15:17:14;10.40;99.90
20891;DHT22;10605;52.968;8.844;2023-04-24T15:19:40;10.40;99.90
20891;DHT22;10605;52.968;8.844;2023-04-24T15:22:05;10.20;99.90
20891;DHT22;10605;52.968;8.844;2023-04-24T15:24:34;10.20;99.90
20891;DHT22;10605;52.968;8.844;2023-04-24T15:27:00;10.20;99.90
20891;DHT22;10605;52.968;8.844;2023-04-24T15:29:27;10.40;99.90
20891;DHT22;10605;52.968;8.844;2023-04-24T15:31:53;10.50;99.90
20891;DHT22;10605;52.968;8.844;2023-04-24T15:34:19;10.70;99.90
20891;DHT22;10605;52.968;8.844;2023-04-24T15:36:45;10.60;99.90
20891;DHT22;10605;52.968;8.844;2023-04-24T15:39:10;10.60;99.90
20891;DHT22;10605;52.968;8.844;2023-04-24T15:41:36;10.80;99.90
20891;DHT22;10605;52.968;8.844;2023-04-24T15:44:02;10.80;99.90
20891;DHT22;10605;52.968;8.844;2023-04-24T15:46:28;10.90;99.90
20891;DHT22;10605;52.968;8.844;2023-04-24T15:48:53;11.00;99.90
20891;DHT22;10605;52.968;8.844;2023-04-24T15:51:19;10.90;99.90
20891;DHT22;10605;52.968;8.844;2023-04-24T15:53:45;10.90;99.90
20891;DHT22;10605;52.968;8.844;2023-04-24T15:56:13;10.60;99.90